sensor_id;sensor_type;location;lat;lon;timestamp;P1;durP1;ratioP1;P2;durP2;ratioP2
1725;SDS011;41776;48.260;8.928;2022-09-14T00:00:38;5.40;;;1.55;;
1725;SDS011;41776;48.260;8.928;2022-09-14T00:03:06;4.85;;;1.48;;
1725;SDS011;41776;48.260;8.928;2022-09-14T00:05:33;4.88;;;1.45;;
1725;SDS011;41776;48.260;8.928;2022-09-14T00:08:02;3.38;;;1.42;;
1725;SDS011;41776;48.260;8.928;2022-09-14T00:10:32;2.90;;;1.25;;
1725;SDS011;41776;48.260;8.928;2022-09-14T00:13:03;4.45;;;1.40;;
1725;SDS011;41776;48.260;8.928;2022-09-14T00:15:29;3.90;;;1.60;;
1725;SDS011;41776;48.260;8.928;2022-09-14T00:17:56;1.88;;;1.20;;
1725;SDS011;41776;48.260;8.928;2022-09-14T00:20:22;2.72;;;1.30;;
1725;SDS011;41776;48.260;8.928;2022-09-14T00:22:51;6.15;;;1.38;;
1725;SDS011;41776;48.260;8.928;2022-09-14T00:25:17;5.40;;;1.42;;
1725;SDS011;41776;48.260;8.928;2022-09-14T00:27:45;3.05;;;1.33;;
1725;SDS011;41776;48.260;8.928;2022-09-14T00:30:15;3.67;;;1.50;;
1725;SDS011;41776;48.260;8.928;2022-09-14T00:32:41;5.47;;;1.77;;
1725;SDS011;41776;48.260;8.928;2022-09-14T00:35:11;4.13;;;1.48;;
1725;SDS011;41776;48.260;8.928;2022-09-14T00:37:47;4.57;;;1.17;;
1725;SDS011;41776;48.260;8.928;2022-09-14T00:40:15;2.03;;;1.50;;
1725;SDS011;41776;48.260;8.928;2022-09-14T00:42:47;2.35;;;1.27;;
1725;SDS011;41776;48.260;8.928;2022-09-14T00:45:16;2.05;;;1.35;;
1725;SDS011;41776;48.260;8.928;2022-09-14T00:47:48;2.58;;;1.55;;
1725;SDS011;41776;48.260;8.928;2022-09-14T00:50:20;4.75;;;1.50;;
1725;SDS011;41776;48.260;8.928;2022-09-14T00:52:47;2.92;;;1.40;;
1725;SDS011;41776;48.260;8.928;2022-09-14T00:55:16;5.55;;;1.40;;
1725;SDS011;41776;48.260;8.928;2022-09-14T00:57:47;3.35;;;1.50;;
1725;SDS011;41776;48.260;8.928;2022-09-14T01:00:19;5.78;;;1.40;;
1725;SDS011;41776;48.260;8.928;2022-09-14T01:02:48;4.20;;;1.25;;
1725;SDS011;41776;48.260;8.928;2022-09-14T01:05:15;6.10;;;2.20;;
1725;SDS011;41776;48.260;8.928;2022-09-14T01:07:51;4.95;;;1.60;;
1725;SDS011;41776;48.260;8.928;2022-09-14T01:10:27;3.75;;;1.65;;
1725;SDS011;41776;48.260;8.928;2022-09-14T01:13:07;3.78;;;1.50;;
1725;SDS011;41776;48.260;8.928;2022-09-14T01:15:44;4.53;;;1.40;;
1725;SDS011;41776;48.260;8.928;2022-09-14T01:18:20;2.67;;;1.40;;
1725;SDS011;41776;48.260;8.928;2022-09-14T01:20:52;3.55;;;1.50;;
1725;SDS011;41776;48.260;8.928;2022-09-14T01:23:26;2.58;;;1.35;;
1725;SDS011;41776;48.260;8.928;2022-09-14T01:29:09;2.40;;;1.48;;
1725;SDS011;41776;48.260;8.928;2022-09-14T01:31:41;5.38;;;1.75;;
1725;SDS011;41776;48.260;8.928;2022-09-14T01:34:15;4.00;;;2.15;;
1725;SDS011;41776;48.260;8.928;2022-09-14T01:36:48;3.97;;;1.50;;
1725;SDS011;41776;48.260;8.928;2022-09-14T01:39:19;6.00;;;1.58;;
1725;SDS011;41776;48.260;8.928;2022-09-14T01:41:47;1.92;;;1.55;;
1725;SDS011;41776;48.260;8.928;2022-09-14T01:44:17;4.32;;;1.40;;
1725;SDS011;41776;48.260;8.928;2022-09-14T01:46:48;8.40;;;1.55;;
1725;SDS011;41776;48.260;8.928;2022-09-14T01:49:19;3.08;;;1.80;;
1725;SDS011;41776;48.260;8.928;2022-09-14T01:51:53;7.57;;;1.85;;
1725;SDS011;41776;48.260;8.928;2022-09-14T01:54:24;7.00;;;1.73;;
1725;SDS011;41776;48.260;8.928;2022-09-14T01:57:05;3.63;;;1.50;;
1725;SDS011;41776;48.260;8.928;2022-09-14T01:59:38;3.10;;;1.42;;
1725;SDS011;41776;48.260;8.928;2022-09-14T02:02:09;9.77;;;1.88;;
1725;SDS011;41776;48.260;8.928;2022-09-14T02:04:44;5.10;;;1.60;;
1725;SDS011;41776;48.260;8.928;2022-09-14T02:07:14;10.15;;;1.50;;
1725;SDS011;41776;48.260;8.928;2022-09-14T02:09:41;7.82;;;1.85;;
1725;SDS011;41776;48.260;8.928;2022-09-14T02:12:08;5.20;;;1.63;;
1725;SDS011;41776;48.260;8.928;2022-09-14T02:14:35;5.63;;;1.80;;
1725;SDS011;41776;48.260;8.928;2022-09-14T02:17:03;8.50;;;2.50;;
1725;SDS011;41776;48.260;8.928;2022-09-14T02:19:34;5.03;;;1.60;;
1725;SDS011;41776;48.260;8.928;2022-09-14T02:22:05;7.63;;;1.60;;
1725;SDS011;41776;48.260;8.928;2022-09-14T02:24:31;6.50;;;1.50;;
1725;SDS011;41776;48.260;8.928;2022-09-14T02:26:58;6.80;;;1.67;;
1725;SDS011;41776;48.260;8.928;2022-09-14T02:29:26;5.82;;;1.80;;
1725;SDS011;41776;48.260;8.928;2022-09-14T02:31:56;6.72;;;1.83;;
1725;SDS011;41776;48.260;8.928;2022-09-14T02:34:36;4.13;;;1.73;;
1725;SDS011;41776;48.260;8.928;2022-09-14T02:37:09;6.57;;;1.95;;
1725;SDS011;41776;48.260;8.928;2022-09-14T02:39:41;7.47;;;1.80;;
1725;SDS011;41776;48.260;8.928;2022-09-14T02:42:20;6.63;;;1.75;;
1725;SDS011;41776;48.260;8.928;2022-09-14T02:44:57;5.57;;;1.80;;
1725;SDS011;41776;48.260;8.928;2022-09-14T02:47:31;7.70;;;1.50;;
1725;SDS011;41776;48.260;8.928;2022-09-14T02:50:09;8.55;;;1.70;;
1725;SDS011;41776;48.260;8.928;2022-09-14T02:52:46;13.98;;;1.85;;
1725;SDS011;41776;48.260;8.928;2022-09-14T02:55:20;6.60;;;1.90;;
1725;SDS011;41776;48.260;8.928;2022-09-14T02:57:59;7.95;;;1.85;;
1725;SDS011;41776;48.260;8.928;2022-09-14T03:00:27;5.45;;;1.58;;
1725;SDS011;41776;48.260;8.928;2022-09-14T03:02:55;7.82;;;1.92;;
1725;SDS011;41776;48.260;8.928;2022-09-14T03:05:22;8.25;;;2.22;;
1725;SDS011;41776;48.260;8.928;2022-09-14T03:07:49;7.43;;;1.85;;
1725;SDS011;41776;48.260;8.928;2022-09-14T03:10:15;3.42;;;1.95;;
1725;SDS011;41776;48.260;8.928;2022-09-14T03:12:42;6.30;;;1.60;;
1725;SDS011;41776;48.260;8.928;2022-09-14T03:15:09;9.98;;;1.63;;
1725;SDS011;41776;48.260;8.928;2022-09-14T03:17:38;5.40;;;1.67;;
1725;SDS011;41776;48.260;8.928;2022-09-14T03:20:06;7.28;;;1.90;;
1725;SDS011;41776;48.260;8.928;2022-09-14T03:22:33;8.65;;;2.13;;
1725;SDS011;41776;48.260;8.928;2022-09-14T03:25:00;8.30;;;1.92;;
1725;SDS011;41776;48.260;8.928;2022-09-14T03:27:26;4.15;;;2.00;;
1725;SDS011;41776;48.260;8.928;2022-09-14T03:29:53;4.95;;;1.70;;
1725;SDS011;41776;48.260;8.928;2022-09-14T03:32:21;12.13;;;2.13;;
1725;SDS011;41776;48.260;8.928;2022-09-14T03:34:48;10.40;;;2.35;;
1725;SDS011;41776;48.260;8.928;2022-09-14T03:37:16;4.80;;;2.03;;
1725;SDS011;41776;48.260;8.928;2022-09-14T03:39:42;10.02;;;2.08;;
1725;SDS011;41776;48.260;8.928;2022-09-14T03:42:11;6.30;;;1.95;;
1725;SDS011;41776;48.260;8.928;2022-09-14T03:44:37;9.18;;;1.80;;
1725;SDS011;41776;48.260;8.928;2022-09-14T03:47:06;4.88;;;2.08;;
1725;SDS011;41776;48.260;8.928;2022-09-14T03:49:33;7.65;;;2.28;;
1725;SDS011;41776;48.260;8.928;2022-09-14T03:52:00;6.78;;;1.80;;
1725;SDS011;41776;48.260;8.928;2022-09-14T03:54:28;6.47;;;1.83;;
1725;SDS011;41776;48.260;8.928;2022-09-14T03:56:55;6.55;;;1.80;;
1725;SDS011;41776;48.260;8.928;2022-09-14T03:59:24;10.63;;;2.00;;
1725;SDS011;41776;48.260;8.928;2022-09-14T04:01:50;6.75;;;1.80;;
1725;SDS011;41776;48.260;8.928;2022-09-14T04:04:19;5.63;;;2.08;;
1725;SDS011;41776;48.260;8.928;2022-09-14T04:06:46;6.07;;;2.20;;
1725;SDS011;41776;48.260;8.928;2022-09-14T04:09:12;7.28;;;2.00;;
1725;SDS011;41776;48.260;8.928;2022-09-14T04:11:40;13.23;;;2.50;;
1725;SDS011;41776;48.260;8.928;2022-09-14T04:14:07;8.07;;;2.35;;
1725;SDS011;41776;48.260;8.928;2022-09-14T04:16:33;4.75;;;1.80;;
1725;SDS011;41776;48.260;8.928;2022-09-14T04:19:00;6.45;;;2.15;;
1725;SDS011;41776;48.260;8.928;2022-09-14T04:21:27;10.85;;;2.47;;
1725;SDS011;41776;48.260;8.928;2022-09-14T04:23:54;5.22;;;2.03;;
1725;SDS011;41776;48.260;8.928;2022-09-14T04:26:23;6.95;;;2.38;;
1725;SDS011;41776;48.260;8.928;2022-09-14T04:28:53;4.40;;;1.90;;
1725;SDS011;41776;48.260;8.928;2022-09-14T04:31:20;4.72;;;2.20;;
1725;SDS011;41776;48.260;8.928;2022-09-14T04:33:47;9.85;;;2.83;;
1725;SDS011;41776;48.260;8.928;2022-09-14T04:36:15;7.03;;;2.80;;
1725;SDS011;41776;48.260;8.928;2022-09-14T04:38:43;13.15;;;2.42;;
1725;SDS011;41776;48.260;8.928;2022-09-14T04:41:12;7.22;;;2.50;;
1725;SDS011;41776;48.260;8.928;2022-09-14T04:43:40;5.43;;;2.50;;
1725;SDS011;41776;48.260;8.928;2022-09-14T04:46:10;6.40;;;2.88;;
1725;SDS011;41776;48.260;8.928;2022-09-14T04:48:39;7.05;;;2.88;;
1725;SDS011;41776;48.260;8.928;2022-09-14T04:51:06;10.32;;;2.80;;
1725;SDS011;41776;48.260;8.928;2022-09-14T04:53:35;7.18;;;3.65;;
1725;SDS011;41776;48.260;8.928;2022-09-14T04:56:04;5.60;;;3.05;;
1725;SDS011;41776;48.260;8.928;2022-09-14T04:58:32;4.57;;;2.90;;
1725;SDS011;41776;48.260;8.928;2022-09-14T05:01:00;4.45;;;1.92;;
1725;SDS011;41776;48.260;8.928;2022-09-14T05:03:28;6.40;;;2.60;;
1725;SDS011;41776;48.260;8.928;2022-09-14T05:05:55;3.95;;;2.40;;
1725;SDS011;41776;48.260;8.928;2022-09-14T05:08:26;5.68;;;2.90;;
1725;SDS011;41776;48.260;8.928;2022-09-14T05:10:53;8.70;;;2.60;;
1725;SDS011;41776;48.260;8.928;2022-09-14T05:13:20;4.45;;;2.78;;
1725;SDS011;41776;48.260;8.928;2022-09-14T05:15:47;6.45;;;2.70;;
1725;SDS011;41776;48.260;8.928;2022-09-14T05:18:14;5.72;;;2.58;;
1725;SDS011;41776;48.260;8.928;2022-09-14T05:20:41;5.25;;;2.50;;
1725;SDS011;41776;48.260;8.928;2022-09-14T05:23:08;4.88;;;2.42;;
1725;SDS011;41776;48.260;8.928;2022-09-14T05:25:34;5.50;;;3.03;;
1725;SDS011;41776;48.260;8.928;2022-09-14T05:28:01;5.20;;;2.97;;
1725;SDS011;41776;48.260;8.928;2022-09-14T05:30:28;7.78;;;2.90;;
1725;SDS011;41776;48.260;8.928;2022-09-14T05:32:55;3.05;;;2.35;;
1725;SDS011;41776;48.260;8.928;2022-09-14T05:35:21;4.18;;;2.42;;
1725;SDS011;41776;48.260;8.928;2022-09-14T05:37:49;3.40;;;2.60;;
1725;SDS011;41776;48.260;8.928;2022-09-14T05:40:16;7.05;;;3.03;;
1725;SDS011;41776;48.260;8.928;2022-09-14T05:42:42;4.70;;;2.88;;
1725;SDS011;41776;48.260;8.928;2022-09-14T05:45:09;5.68;;;3.15;;
1725;SDS011;41776;48.260;8.928;2022-09-14T05:47:36;4.20;;;2.50;;
1725;SDS011;41776;48.260;8.928;2022-09-14T05:50:02;8.88;;;3.17;;
1725;SDS011;41776;48.260;8.928;2022-09-14T05:52:29;7.38;;;2.80;;
1725;SDS011;41776;48.260;8.928;2022-09-14T05:54:57;4.20;;;2.80;;
1725;SDS011;41776;48.260;8.928;2022-09-14T05:57:24;9.00;;;2.53;;
1725;SDS011;41776;48.260;8.928;2022-09-14T05:59:50;6.97;;;2.35;;
1725;SDS011;41776;48.260;8.928;2022-09-14T06:02:17;4.30;;;2.25;;
1725;SDS011;41776;48.260;8.928;2022-09-14T06:04:43;6.88;;;2.30;;
1725;SDS011;41776;48.260;8.928;2022-09-14T06:07:10;6.57;;;2.80;;
1725;SDS011;41776;48.260;8.928;2022-09-14T06:09:36;6.65;;;2.38;;
1725;SDS011;41776;48.260;8.928;2022-09-14T06:12:04;7.32;;;2.50;;
1725;SDS011;41776;48.260;8.928;2022-09-14T06:14:31;6.95;;;2.33;;
1725;SDS011;41776;48.260;8.928;2022-09-14T06:16:58;3.88;;;2.25;;
1725;SDS011;41776;48.260;8.928;2022-09-14T06:19:25;3.03;;;2.20;;
1725;SDS011;41776;48.260;8.928;2022-09-14T06:21:51;3.65;;;2.10;;
1725;SDS011;41776;48.260;8.928;2022-09-14T06:24:18;9.65;;;2.30;;
1725;SDS011;41776;48.260;8.928;2022-09-14T06:26:44;7.50;;;2.38;;
1725;SDS011;41776;48.260;8.928;2022-09-14T06:29:12;5.38;;;2.05;;
1725;SDS011;41776;48.260;8.928;2022-09-14T06:31:38;5.95;;;2.17;;
1725;SDS011;41776;48.260;8.928;2022-09-14T06:34:05;7.00;;;1.98;;
1725;SDS011;41776;48.260;8.928;2022-09-14T06:36:31;4.68;;;2.10;;
1725;SDS011;41776;48.260;8.928;2022-09-14T06:38:58;6.32;;;2.05;;
1725;SDS011;41776;48.260;8.928;2022-09-14T06:41:25;4.15;;;1.67;;
1725;SDS011;41776;48.260;8.928;2022-09-14T06:43:55;4.68;;;1.88;;
1725;SDS011;41776;48.260;8.928;2022-09-14T06:46:24;3.92;;;1.90;;
1725;SDS011;41776;48.260;8.928;2022-09-14T06:48:53;8.23;;;2.05;;
1725;SDS011;41776;48.260;8.928;2022-09-14T06:51:22;4.88;;;1.98;;
1725;SDS011;41776;48.260;8.928;2022-09-14T06:53:50;7.63;;;2.03;;
1725;SDS011;41776;48.260;8.928;2022-09-14T06:56:18;3.85;;;2.10;;
1725;SDS011;41776;48.260;8.928;2022-09-14T06:58:45;5.88;;;2.35;;
1725;SDS011;41776;48.260;8.928;2022-09-14T07:01:12;8.63;;;1.90;;
1725;SDS011;41776;48.260;8.928;2022-09-14T07:03:41;7.22;;;2.10;;
1725;SDS011;41776;48.260;8.928;2022-09-14T07:06:09;6.28;;;1.70;;
1725;SDS011;41776;48.260;8.928;2022-09-14T07:08:38;6.10;;;1.90;;
1725;SDS011;41776;48.260;8.928;2022-09-14T07:11:05;9.38;;;2.17;;
1725;SDS011;41776;48.260;8.928;2022-09-14T07:13:33;3.20;;;1.70;;
1725;SDS011;41776;48.260;8.928;2022-09-14T07:16:00;5.53;;;1.88;;
1725;SDS011;41776;48.260;8.928;2022-09-14T07:18:27;8.15;;;2.40;;
1725;SDS011;41776;48.260;8.928;2022-09-14T07:20:59;5.40;;;1.95;;
1725;SDS011;41776;48.260;8.928;2022-09-14T07:23:26;5.13;;;2.03;;
1725;SDS011;41776;48.260;8.928;2022-09-14T07:25:58;2.63;;;1.70;;
1725;SDS011;41776;48.260;8.928;2022-09-14T07:28:25;4.53;;;1.85;;
1725;SDS011;41776;48.260;8.928;2022-09-14T07:30:52;4.72;;;1.77;;
1725;SDS011;41776;48.260;8.928;2022-09-14T07:33:18;5.65;;;2.17;;
1725;SDS011;41776;48.260;8.928;2022-09-14T07:35:45;6.25;;;1.98;;
1725;SDS011;41776;48.260;8.928;2022-09-14T07:38:13;4.18;;;2.10;;
1725;SDS011;41776;48.260;8.928;2022-09-14T07:40:39;5.00;;;1.50;;
1725;SDS011;41776;48.260;8.928;2022-09-14T07:43:05;7.18;;;2.15;;
1725;SDS011;41776;48.260;8.928;2022-09-14T07:45:33;4.30;;;1.88;;
1725;SDS011;41776;48.260;8.928;2022-09-14T07:48:00;4.68;;;2.20;;
1725;SDS011;41776;48.260;8.928;2022-09-14T07:50:27;5.75;;;2.30;;
1725;SDS011;41776;48.260;8.928;2022-09-14T07:52:53;5.47;;;1.77;;
1725;SDS011;41776;48.260;8.928;2022-09-14T07:55:21;6.00;;;2.00;;
1725;SDS011;41776;48.260;8.928;2022-09-14T07:57:48;7.80;;;2.00;;
1725;SDS011;41776;48.260;8.928;2022-09-14T08:00:14;6.03;;;1.77;;
1725;SDS011;41776;48.260;8.928;2022-09-14T08:02:41;4.00;;;1.75;;
1725;SDS011;41776;48.260;8.928;2022-09-14T08:05:08;3.78;;;1.90;;
1725;SDS011;41776;48.260;8.928;2022-09-14T08:07:35;3.40;;;1.90;;
1725;SDS011;41776;48.260;8.928;2022-09-14T08:10:01;3.97;;;2.15;;
1725;SDS011;41776;48.260;8.928;2022-09-14T08:12:29;8.00;;;2.78;;
1725;SDS011;41776;48.260;8.928;2022-09-14T08:14:56;5.65;;;2.25;;
1725;SDS011;41776;48.260;8.928;2022-09-14T08:17:22;4.60;;;1.50;;
1725;SDS011;41776;48.260;8.928;2022-09-14T08:19:49;4.63;;;1.90;;
1725;SDS011;41776;48.260;8.928;2022-09-14T08:22:16;6.88;;;1.95;;
1725;SDS011;41776;48.260;8.928;2022-09-14T08:24:42;4.05;;;2.15;;
1725;SDS011;41776;48.260;8.928;2022-09-14T08:27:09;6.63;;;2.13;;
1725;SDS011;41776;48.260;8.928;2022-09-14T08:29:37;4.95;;;1.80;;
1725;SDS011;41776;48.260;8.928;2022-09-14T08:32:04;4.90;;;2.05;;
1725;SDS011;41776;48.260;8.928;2022-09-14T08:34:31;6.10;;;1.90;;
1725;SDS011;41776;48.260;8.928;2022-09-14T08:36:58;4.53;;;1.67;;
1725;SDS011;41776;48.260;8.928;2022-09-14T08:39:24;3.42;;;1.92;;
1725;SDS011;41776;48.260;8.928;2022-09-14T08:41:52;6.60;;;1.92;;
1725;SDS011;41776;48.260;8.928;2022-09-14T08:44:21;6.85;;;1.85;;
1725;SDS011;41776;48.260;8.928;2022-09-14T08:46:52;9.00;;;2.42;;
1725;SDS011;41776;48.260;8.928;2022-09-14T08:49:27;3.35;;;1.80;;
1725;SDS011;41776;48.260;8.928;2022-09-14T08:52:01;3.33;;;2.00;;
1725;SDS011;41776;48.260;8.928;2022-09-14T08:54:29;4.32;;;2.20;;
1725;SDS011;41776;48.260;8.928;2022-09-14T08:56:58;5.40;;;1.70;;
1725;SDS011;41776;48.260;8.928;2022-09-14T08:59:35;4.50;;;1.80;;
1725;SDS011;41776;48.260;8.928;2022-09-14T09:02:15;4.00;;;1.98;;
1725;SDS011;41776;48.260;8.928;2022-09-14T09:04:51;6.22;;;2.03;;
1725;SDS011;41776;48.260;8.928;2022-09-14T09:07:22;6.57;;;2.10;;
1725;SDS011;41776;48.260;8.928;2022-09-14T09:09:57;9.50;;;1.65;;
1725;SDS011;41776;48.260;8.928;2022-09-14T09:12:27;9.13;;;2.05;;
1725;SDS011;41776;48.260;8.928;2022-09-14T09:15:02;4.28;;;1.73;;
1725;SDS011;41776;48.260;8.928;2022-09-14T09:17:37;3.65;;;1.60;;
1725;SDS011;41776;48.260;8.928;2022-09-14T09:20:08;3.10;;;1.30;;
1725;SDS011;41776;48.260;8.928;2022-09-14T09:22:42;5.35;;;1.92;;
1725;SDS011;41776;48.260;8.928;2022-09-14T09:25:13;9.63;;;1.73;;
1725;SDS011;41776;48.260;8.928;2022-09-14T09:27:42;5.43;;;1.40;;
1725;SDS011;41776;48.260;8.928;2022-09-14T09:30:11;5.78;;;1.40;;
1725;SDS011;41776;48.260;8.928;2022-09-14T09:32:43;4.63;;;1.70;;
1725;SDS011;41776;48.260;8.928;2022-09-14T09:35:13;2.60;;;1.45;;
1725;SDS011;41776;48.260;8.928;2022-09-14T09:37:42;3.97;;;1.65;;
1725;SDS011;41776;48.260;8.928;2022-09-14T09:40:15;5.40;;;1.88;;
1725;SDS011;41776;48.260;8.928;2022-09-14T09:43:02;4.85;;;1.63;;
1725;SDS011;41776;48.260;8.928;2022-09-14T09:45:44;7.13;;;2.05;;
1725;SDS011;41776;48.260;8.928;2022-09-14T09:48:14;5.35;;;1.58;;
1725;SDS011;41776;48.260;8.928;2022-09-14T09:50:46;8.93;;;1.90;;
1725;SDS011;41776;48.260;8.928;2022-09-14T09:53:14;7.68;;;1.70;;
1725;SDS011;41776;48.260;8.928;2022-09-14T09:55:45;5.50;;;1.98;;
1725;SDS011;41776;48.260;8.928;2022-09-14T09:58:19;8.40;;;1.83;;
1725;SDS011;41776;48.260;8.928;2022-09-14T10:00:53;6.47;;;1.60;;
1725;SDS011;41776;48.260;8.928;2022-09-14T10:03:26;11.17;;;2.00;;
1725;SDS011;41776;48.260;8.928;2022-09-14T10:05:58;6.55;;;2.00;;
1725;SDS011;41776;48.260;8.928;2022-09-14T10:08:27;5.30;;;1.90;;
1725;SDS011;41776;48.260;8.928;2022-09-14T10:10:58;3.00;;;1.30;;
1725;SDS011;41776;48.260;8.928;2022-09-14T10:13:26;4.53;;;1.70;;
1725;SDS011;41776;48.260;8.928;2022-09-14T10:16:03;8.63;;;1.88;;
1725;SDS011;41776;48.260;8.928;2022-09-14T10:18:32;6.38;;;2.25;;
1725;SDS011;41776;48.260;8.928;2022-09-14T10:21:03;4.70;;;1.60;;
1725;SDS011;41776;48.260;8.928;2022-09-14T10:23:32;6.88;;;1.67;;
1725;SDS011;41776;48.260;8.928;2022-09-14T10:26:18;4.20;;;1.88;;
1725;SDS011;41776;48.260;8.928;2022-09-14T10:28:49;6.45;;;1.58;;
1725;SDS011;41776;48.260;8.928;2022-09-14T10:31:17;4.80;;;1.63;;
1725;SDS011;41776;48.260;8.928;2022-09-14T10:33:52;6.15;;;1.70;;
1725;SDS011;41776;48.260;8.928;2022-09-14T10:36:21;7.18;;;1.75;;
1725;SDS011;41776;48.260;8.928;2022-09-14T10:38:51;7.72;;;1.90;;
1725;SDS011;41776;48.260;8.928;2022-09-14T10:41:23;8.32;;;1.88;;
1725;SDS011;41776;48.260;8.928;2022-09-14T10:44:01;9.13;;;2.03;;
1725;SDS011;41776;48.260;8.928;2022-09-14T10:46:44;6.95;;;1.77;;
1725;SDS011;41776;48.260;8.928;2022-09-14T10:49:26;4.88;;;1.60;;
1725;SDS011;41776;48.260;8.928;2022-09-14T10:52:02;5.70;;;3.42;;
1725;SDS011;41776;48.260;8.928;2022-09-14T10:54:50;11.02;;;4.38;;
1725;SDS011;41776;48.260;8.928;2022-09-14T10:57:34;7.68;;;2.28;;
1725;SDS011;41776;48.260;8.928;2022-09-14T11:00:14;4.10;;;1.98;;
1725;SDS011;41776;48.260;8.928;2022-09-14T11:02:49;8.73;;;2.78;;
1725;SDS011;41776;48.260;8.928;2022-09-14T11:05:26;5.53;;;1.92;;
1725;SDS011;41776;48.260;8.928;2022-09-14T11:08:02;9.18;;;3.30;;
1725;SDS011;41776;48.260;8.928;2022-09-14T11:10:39;8.38;;;2.35;;
1725;SDS011;41776;48.260;8.928;2022-09-14T11:13:26;6.80;;;2.20;;
1725;SDS011;41776;48.260;8.928;2022-09-14T11:16:11;5.40;;;2.03;;
1725;SDS011;41776;48.260;8.928;2022-09-14T11:18:50;3.75;;;1.90;;
1725;SDS011;41776;48.260;8.928;2022-09-14T11:21:33;6.05;;;1.50;;
1725;SDS011;41776;48.260;8.928;2022-09-14T11:24:11;4.95;;;1.70;;
1725;SDS011;41776;48.260;8.928;2022-09-14T11:26:44;3.28;;;1.70;;
1725;SDS011;41776;48.260;8.928;2022-09-14T11:29:15;3.30;;;1.88;;
1725;SDS011;41776;48.260;8.928;2022-09-14T11:31:48;5.50;;;1.92;;
1725;SDS011;41776;48.260;8.928;2022-09-14T11:34:18;4.40;;;1.70;;
1725;SDS011;41776;48.260;8.928;2022-09-14T11:36:49;2.78;;;1.98;;
1725;SDS011;41776;48.260;8.928;2022-09-14T11:39:21;5.57;;;1.60;;
1725;SDS011;41776;48.260;8.928;2022-09-14T11:41:51;5.35;;;1.50;;
1725;SDS011;41776;48.260;8.928;2022-09-14T11:44:22;2.30;;;1.30;;
1725;SDS011;41776;48.260;8.928;2022-09-14T11:46:55;8.13;;;1.27;;
1725;SDS011;41776;48.260;8.928;2022-09-14T11:49:28;4.97;;;1.38;;
1725;SDS011;41776;48.260;8.928;2022-09-14T11:52:06;3.90;;;1.40;;
1725;SDS011;41776;48.260;8.928;2022-09-14T11:54:39;3.92;;;1.70;;
1725;SDS011;41776;48.260;8.928;2022-09-14T11:57:06;2.25;;;1.08;;
1725;SDS011;41776;48.260;8.928;2022-09-14T11:59:45;5.35;;;1.25;;
1725;SDS011;41776;48.260;8.928;2022-09-14T12:05:22;3.42;;;1.35;;
1725;SDS011;41776;48.260;8.928;2022-09-14T12:07:58;2.58;;;1.10;;
1725;SDS011;41776;48.260;8.928;2022-09-14T12:10:27;2.60;;;1.58;;
1725;SDS011;41776;48.260;8.928;2022-09-14T12:12:54;2.08;;;1.35;;
1725;SDS011;41776;48.260;8.928;2022-09-14T12:15:31;6.45;;;1.70;;
1725;SDS011;41776;48.260;8.928;2022-09-14T12:18:18;5.88;;;1.08;;
1725;SDS011;41776;48.260;8.928;2022-09-14T12:20:48;2.90;;;1.48;;
1725;SDS011;41776;48.260;8.928;2022-09-14T12:23:26;3.47;;;1.15;;
1725;SDS011;41776;48.260;8.928;2022-09-14T12:26:11;2.08;;;1.17;;
1725;SDS011;41776;48.260;8.928;2022-09-14T12:28:52;2.40;;;1.20;;
1725;SDS011;41776;48.260;8.928;2022-09-14T12:31:34;2.58;;;1.17;;
1725;SDS011;41776;48.260;8.928;2022-09-14T12:34:14;5.07;;;1.20;;
1725;SDS011;41776;48.260;8.928;2022-09-14T12:37:02;2.05;;;1.05;;
1725;SDS011;41776;48.260;8.928;2022-09-14T12:49:02;3.20;;;1.35;;
1725;SDS011;41776;48.260;8.928;2022-09-14T12:51:47;3.38;;;1.20;;
1725;SDS011;41776;48.260;8.928;2022-09-14T12:54:21;3.67;;;1.38;;
1725;SDS011;41776;48.260;8.928;2022-09-14T12:56:56;3.85;;;1.70;;
1725;SDS011;41776;48.260;8.928;2022-09-14T12:59:31;3.85;;;1.27;;
1725;SDS011;41776;48.260;8.928;2022-09-14T13:05:14;8.05;;;1.77;;
1725;SDS011;41776;48.260;8.928;2022-09-14T13:07:42;4.43;;;1.70;;
1725;SDS011;41776;48.260;8.928;2022-09-14T13:10:15;5.18;;;1.73;;
1725;SDS011;41776;48.260;8.928;2022-09-14T13:12:43;2.47;;;1.52;;
1725;SDS011;41776;48.260;8.928;2022-09-14T13:15:15;3.13;;;1.60;;
1725;SDS011;41776;48.260;8.928;2022-09-14T13:20:56;4.70;;;1.55;;
1725;SDS011;41776;48.260;8.928;2022-09-14T13:23:26;2.13;;;1.10;;
1725;SDS011;41776;48.260;8.928;2022-09-14T13:25:55;2.90;;;1.20;;
1725;SDS011;41776;48.260;8.928;2022-09-14T13:28:22;2.75;;;1.00;;
1725;SDS011;41776;48.260;8.928;2022-09-14T13:30:53;5.28;;;0.90;;
1725;SDS011;41776;48.260;8.928;2022-09-14T13:33:22;2.92;;;0.90;;
1725;SDS011;41776;48.260;8.928;2022-09-14T13:35:50;2.35;;;0.95;;
1725;SDS011;41776;48.260;8.928;2022-09-14T13:38:20;4.10;;;1.00;;
1725;SDS011;41776;48.260;8.928;2022-09-14T13:40:48;2.55;;;0.63;;
1725;SDS011;41776;48.260;8.928;2022-09-14T13:43:16;2.22;;;0.70;;
1725;SDS011;41776;48.260;8.928;2022-09-14T13:45:45;1.33;;;0.70;;
1725;SDS011;41776;48.260;8.928;2022-09-14T13:48:14;2.00;;;0.60;;
1725;SDS011;41776;48.260;8.928;2022-09-14T13:50:44;3.30;;;0.70;;
1725;SDS011;41776;48.260;8.928;2022-09-14T13:56:20;2.03;;;0.60;;
1725;SDS011;41776;48.260;8.928;2022-09-14T13:58:49;1.27;;;0.50;;
1725;SDS011;41776;48.260;8.928;2022-09-14T14:01:36;1.77;;;0.60;;
1725;SDS011;41776;48.260;8.928;2022-09-14T14:04:04;3.22;;;0.73;;
1725;SDS011;41776;48.260;8.928;2022-09-14T14:06:48;0.50;;;0.50;;
1725;SDS011;41776;48.260;8.928;2022-09-14T14:09:36;0.82;;;0.55;;
1725;SDS011;41776;48.260;8.928;2022-09-14T14:12:06;2.03;;;0.70;;
1725;SDS011;41776;48.260;8.928;2022-09-14T14:14:34;0.80;;;0.52;;
1725;SDS011;41776;48.260;8.928;2022-09-14T14:17:21;2.55;;;0.90;;
1725;SDS011;41776;48.260;8.928;2022-09-14T14:19:50;0.60;;;0.60;;
1725;SDS011;41776;48.260;8.928;2022-09-14T14:22:20;0.82;;;0.60;;
1725;SDS011;41776;48.260;8.928;2022-09-14T14:24:51;2.15;;;0.60;;
1725;SDS011;41776;48.260;8.928;2022-09-14T14:27:21;0.70;;;0.70;;
1725;SDS011;41776;48.260;8.928;2022-09-14T14:29:57;0.98;;;0.63;;
1725;SDS011;41776;48.260;8.928;2022-09-14T14:32:25;0.95;;;0.68;;
1725;SDS011;41776;48.260;8.928;2022-09-14T14:34:52;1.85;;;0.70;;
1725;SDS011;41776;48.260;8.928;2022-09-14T14:37:21;4.82;;;1.25;;
1725;SDS011;41776;48.260;8.928;2022-09-14T14:39:48;2.35;;;1.10;;
1725;SDS011;41776;48.260;8.928;2022-09-14T14:42:14;1.85;;;1.20;;
1725;SDS011;41776;48.260;8.928;2022-09-14T14:44:41;3.30;;;1.10;;
1725;SDS011;41776;48.260;8.928;2022-09-14T14:47:09;1.75;;;0.90;;
1725;SDS011;41776;48.260;8.928;2022-09-14T14:49:37;1.23;;;0.77;;
1725;SDS011;41776;48.260;8.928;2022-09-14T14:52:04;0.80;;;0.60;;
1725;SDS011;41776;48.260;8.928;2022-09-14T14:54:32;1.10;;;0.70;;
1725;SDS011;41776;48.260;8.928;2022-09-14T14:56:58;2.30;;;0.80;;
1725;SDS011;41776;48.260;8.928;2022-09-14T14:59:26;1.63;;;0.80;;
1725;SDS011;41776;48.260;8.928;2022-09-14T15:01:55;3.40;;;0.65;;
1725;SDS011;41776;48.260;8.928;2022-09-14T15:04:22;0.88;;;0.60;;
1725;SDS011;41776;48.260;8.928;2022-09-14T15:06:49;0.88;;;0.57;;
1725;SDS011;41776;48.260;8.928;2022-09-14T15:09:17;0.65;;;0.65;;
1725;SDS011;41776;48.260;8.928;2022-09-14T15:11:46;1.85;;;0.70;;
1725;SDS011;41776;48.260;8.928;2022-09-14T15:14:13;1.35;;;0.57;;
1725;SDS011;41776;48.260;8.928;2022-09-14T15:16:41;0.82;;;0.50;;
1725;SDS011;41776;48.260;8.928;2022-09-14T15:19:08;1.20;;;0.50;;
1725;SDS011;41776;48.260;8.928;2022-09-14T15:21:35;1.60;;;0.80;;
1725;SDS011;41776;48.260;8.928;2022-09-14T15:24:02;2.00;;;0.70;;
1725;SDS011;41776;48.260;8.928;2022-09-14T15:26:28;3.17;;;0.65;;
1725;SDS011;41776;48.260;8.928;2022-09-14T15:28:56;2.30;;;0.80;;
1725;SDS011;41776;48.260;8.928;2022-09-14T15:31:22;1.65;;;0.70;;
1725;SDS011;41776;48.260;8.928;2022-09-14T15:33:49;1.67;;;0.70;;
1725;SDS011;41776;48.260;8.928;2022-09-14T15:39:00;2.17;;;0.60;;
1725;SDS011;41776;48.260;8.928;2022-09-14T15:41:27;1.25;;;0.68;;
1725;SDS011;41776;48.260;8.928;2022-09-14T15:43:53;4.60;;;0.70;;
1725;SDS011;41776;48.260;8.928;2022-09-14T15:46:21;1.55;;;0.50;;